GIA009 WIDD-WIMM
Flight info
| Callsign | GIA009 |
|---|---|
| Flight time | N/A |
| Altitude | 32000 |
| Route | SALAX N563 ELROK |
| Aircraft | B738/M-SDE2E3FGHIRWXY/LB1 |
Departure
| Time | 2026-05-05 11:19 |
|---|---|
| Airport | Hang Nadim International Airport (WIDD) |
Arrival
| Time | N/A |
|---|---|
| Airport | Kualanamu International Airport (WIMM) |
| Time | Latitude | Longitude | Altitude | Speed | Heading |
|---|---|---|---|---|---|
| 2026-05-05 10:47 | 1.12168 | 104.11504 | 136 ft | 0 kts | 311° |
| 2026-05-05 10:54 | 1.12163 | 104.11510 | 136 ft | 0 kts | 311° |
| 2026-05-05 10:55 | 1.12168 | 104.11504 | 137 ft | 0 kts | 311° |
| 2026-05-05 11:10 | 1.12163 | 104.11509 | 136 ft | 4 kts | 314° |
| 2026-05-05 11:10 | 1.12143 | 104.11526 | 136 ft | 4 kts | 335° |
| 2026-05-05 11:11 | 1.12118 | 104.11531 | 136 ft | 4 kts | 18° |
| 2026-05-05 11:11 | 1.12104 | 104.11524 | 136 ft | 1 kts | 41° |
| 2026-05-05 11:11 | 1.12103 | 104.11522 | 136 ft | 0 kts | 41° |
| 2026-05-05 11:14 | 1.12104 | 104.11526 | 136 ft | 3 kts | 60° |
| 2026-05-05 11:14 | 1.12093 | 104.11585 | 136 ft | 14 kts | 122° |
| 2026-05-05 11:14 | 1.12085 | 104.11642 | 136 ft | 10 kts | 60° |
| 2026-05-05 11:15 | 1.12164 | 104.11718 | 136 ft | 21 kts | 41° |
| 2026-05-05 11:15 | 1.12301 | 104.11839 | 137 ft | 27 kts | 40° |
| 2026-05-05 11:15 | 1.12459 | 104.11981 | 136 ft | 35 kts | 42° |
| 2026-05-05 11:15 | 1.12664 | 104.12161 | 136 ft | 43 kts | 42° |
| 2026-05-05 11:16 | 1.12894 | 104.12365 | 136 ft | 44 kts | 42° |
| 2026-05-05 11:16 | 1.13074 | 104.12521 | 136 ft | 23 kts | 42° |
| 2026-05-05 11:16 | 1.13160 | 104.12597 | 136 ft | 16 kts | 40° |
| 2026-05-05 11:16 | 1.13236 | 104.12672 | 136 ft | 15 kts | 60° |
| 2026-05-05 11:17 | 1.13223 | 104.12752 | 137 ft | 12 kts | 128° |
| 2026-05-05 11:17 | 1.13206 | 104.12773 | 137 ft | 1 kts | 130° |
| 2026-05-05 11:17 | 1.13202 | 104.12777 | 137 ft | 1 kts | 130° |
| 2026-05-05 11:17 | 1.13194 | 104.12787 | 137 ft | 3 kts | 127° |
| 2026-05-05 11:18 | 1.13179 | 104.12807 | 137 ft | 4 kts | 127° |
| 2026-05-05 11:18 | 1.13152 | 104.12810 | 137 ft | 4 kts | 205° |
| 2026-05-05 11:18 | 1.13118 | 104.12781 | 137 ft | 22 kts | 221° |
| 2026-05-05 11:18 | 1.12774 | 104.12478 | 135 ft | 107 kts | 221° |
| 2026-05-05 11:19 | 1.12027 | 104.11823 | 190 ft | 172 kts | 221° |
| 2026-05-05 11:19 | 1.11067 | 104.10943 | 754 ft | 199 kts | 221° |
| 2026-05-05 11:19 | 1.10105 | 104.09869 | 1317 ft | 224 kts | 244° |
| 2026-05-05 11:19 | 1.09933 | 104.08239 | 1618 ft | 255 kts | 284° |
| 2026-05-05 11:20 | 1.10735 | 104.06567 | 1996 ft | 279 kts | 302° |
| 2026-05-05 11:20 | 1.11836 | 104.04927 | 2656 ft | 288 kts | 304° |
| 2026-05-05 11:20 | 1.12940 | 104.03251 | 3445 ft | 292 kts | 302° |
| 2026-05-05 11:20 | 1.14017 | 104.01481 | 3932 ft | 305 kts | 300° |
| 2026-05-05 11:21 | 1.15073 | 103.99588 | 4488 ft | 318 kts | 298° |
| 2026-05-05 11:21 | 1.16097 | 103.97617 | 5079 ft | 328 kts | 297° |
| 2026-05-05 11:21 | 1.17110 | 103.95552 | 5822 ft | 333 kts | 295° |
| 2026-05-05 11:21 | 1.18099 | 103.93449 | 6601 ft | 336 kts | 295° |
| 2026-05-05 11:22 | 1.19073 | 103.91314 | 7314 ft | 340 kts | 294° |
| 2026-05-05 11:22 | 1.20044 | 103.89143 | 8019 ft | 344 kts | 294° |
| 2026-05-05 11:22 | 1.21015 | 103.86945 | 8700 ft | 348 kts | 294° |
| 2026-05-05 11:22 | 1.21993 | 103.84710 | 9388 ft | 352 kts | 293° |
| 2026-05-05 11:23 | 1.22974 | 103.82458 | 10033 ft | 356 kts | 293° |
| 2026-05-05 11:23 | 1.23965 | 103.80175 | 10629 ft | 360 kts | 293° |
| 2026-05-05 11:23 | 1.24967 | 103.77865 | 11200 ft | 365 kts | 294° |
| 2026-05-05 11:23 | 1.25985 | 103.75515 | 11790 ft | 369 kts | 294° |
| 2026-05-05 11:24 | 1.27009 | 103.73149 | 12380 ft | 373 kts | 294° |
| 2026-05-05 11:24 | 1.28044 | 103.70759 | 12969 ft | 377 kts | 294° |
| 2026-05-05 11:24 | 1.29088 | 103.68346 | 13523 ft | 380 kts | 294° |
| 2026-05-05 11:24 | 1.30144 | 103.65907 | 14041 ft | 384 kts | 294° |
| 2026-05-05 11:25 | 1.31209 | 103.63446 | 14550 ft | 387 kts | 294° |
| 2026-05-05 11:25 | 1.32283 | 103.60964 | 15051 ft | 391 kts | 294° |
| 2026-05-05 11:25 | 1.33367 | 103.58459 | 15543 ft | 394 kts | 294° |
| 2026-05-05 11:25 | 1.34460 | 103.55932 | 16027 ft | 398 kts | 294° |
| 2026-05-05 11:26 | 1.35563 | 103.53384 | 16507 ft | 401 kts | 294° |
| 2026-05-05 11:26 | 1.36675 | 103.50814 | 16994 ft | 404 kts | 294° |
| 2026-05-05 11:26 | 1.37793 | 103.48229 | 17448 ft | 408 kts | 294° |
| 2026-05-05 11:26 | 1.38908 | 103.45653 | 17896 ft | 411 kts | 294° |
| 2026-05-05 11:27 | 1.40047 | 103.43021 | 18301 ft | 414 kts | 294° |
| 2026-05-05 11:27 | 1.41195 | 103.40366 | 18706 ft | 417 kts | 294° |
| 2026-05-05 11:27 | 1.42347 | 103.37703 | 19112 ft | 419 kts | 294° |
| 2026-05-05 11:27 | 1.43507 | 103.35023 | 19504 ft | 421 kts | 294° |
| 2026-05-05 11:28 | 1.44670 | 103.32332 | 19926 ft | 422 kts | 294° |
| 2026-05-05 11:28 | 1.45828 | 103.29655 | 20460 ft | 419 kts | 294° |
| 2026-05-05 11:28 | 1.46986 | 103.26977 | 20999 ft | 417 kts | 294° |
| 2026-05-05 11:28 | 1.48134 | 103.24323 | 21540 ft | 415 kts | 294° |
| 2026-05-05 11:29 | 1.49274 | 103.21687 | 22099 ft | 412 kts | 294° |
| 2026-05-05 11:29 | 1.50409 | 103.19063 | 22651 ft | 411 kts | 294° |
| 2026-05-05 11:29 | 1.51541 | 103.16444 | 23152 ft | 410 kts | 294° |
| 2026-05-05 11:29 | 1.52675 | 103.13822 | 23614 ft | 410 kts | 294° |
| 2026-05-05 11:30 | 1.53808 | 103.11204 | 24045 ft | 409 kts | 294° |
| 2026-05-05 11:30 | 1.54935 | 103.08596 | 24475 ft | 408 kts | 294° |
| 2026-05-05 11:30 | 1.56048 | 103.06024 | 24907 ft | 407 kts | 294° |
| 2026-05-05 11:30 | 1.57169 | 103.03429 | 25353 ft | 406 kts | 294° |
| 2026-05-05 11:31 | 1.58288 | 103.00841 | 25831 ft | 405 kts | 294° |
| 2026-05-05 11:31 | 1.59405 | 102.98258 | 26310 ft | 403 kts | 294° |
| 2026-05-05 11:31 | 1.60514 | 102.95694 | 26797 ft | 401 kts | 294° |
| 2026-05-05 11:31 | 1.61617 | 102.93142 | 27292 ft | 399 kts | 294° |
| 2026-05-05 11:32 | 1.62713 | 102.90606 | 27800 ft | 396 kts | 294° |
| 2026-05-05 11:32 | 1.63807 | 102.88075 | 28317 ft | 394 kts | 294° |
| 2026-05-05 11:32 | 1.64889 | 102.85573 | 28837 ft | 391 kts | 294° |
| 2026-05-05 11:32 | 1.65961 | 102.83092 | 29369 ft | 387 kts | 294° |
| 2026-05-05 11:33 | 1.67023 | 102.80634 | 29901 ft | 384 kts | 294° |
| 2026-05-05 11:33 | 1.68077 | 102.78196 | 30369 ft | 379 kts | 294° |
| 2026-05-05 11:33 | 1.69117 | 102.75791 | 30816 ft | 375 kts | 294° |
| 2026-05-05 11:33 | 1.70162 | 102.73373 | 30941 ft | 383 kts | 294° |
| 2026-05-05 11:34 | 1.71230 | 102.70902 | 31009 ft | 391 kts | 294° |
| 2026-05-05 11:34 | 1.73419 | 102.65839 | 31145 ft | 408 kts | 294° |
| 2026-05-05 11:35 | 1.75710 | 102.60536 | 31293 ft | 423 kts | 294° |
| 2026-05-05 11:35 | 1.78087 | 102.55036 | 31415 ft | 438 kts | 294° |
| 2026-05-05 11:36 | 1.80544 | 102.49347 | 31528 ft | 452 kts | 294° |
| 2026-05-05 11:36 | 1.83070 | 102.43499 | 31628 ft | 464 kts | 294° |
| 2026-05-05 11:36 | 1.84358 | 102.40518 | 31736 ft | 468 kts | 294° |
| 2026-05-05 11:37 | 1.85653 | 102.37520 | 31803 ft | 471 kts | 294° |
| 2026-05-05 11:37 | 1.88253 | 102.31498 | 31815 ft | 472 kts | 294° |
| 2026-05-05 11:38 | 1.90849 | 102.25485 | 31822 ft | 470 kts | 294° |
| 2026-05-05 11:38 | 1.93420 | 102.19531 | 31831 ft | 469 kts | 294° |
| 2026-05-05 11:39 | 1.95571 | 102.14549 | 31818 ft | 469 kts | 294° |
| 2026-05-05 11:39 | 1.98589 | 102.07557 | 31825 ft | 468 kts | 294° |
| 2026-05-05 11:40 | 2.01130 | 102.01670 | 31821 ft | 468 kts | 294° |
| 2026-05-05 11:40 | 2.03706 | 101.95701 | 31819 ft | 468 kts | 294° |
| 2026-05-05 11:41 | 2.06284 | 101.89728 | 31828 ft | 468 kts | 294° |
| 2026-05-05 11:41 | 2.08859 | 101.83760 | 31827 ft | 468 kts | 294° |
| 2026-05-05 11:42 | 2.11420 | 101.77823 | 31817 ft | 468 kts | 294° |
| 2026-05-05 11:42 | 2.14000 | 101.71840 | 31828 ft | 468 kts | 294° |
| 2026-05-05 11:43 | 2.16576 | 101.65869 | 31826 ft | 468 kts | 294° |
| 2026-05-05 11:43 | 2.19159 | 101.59876 | 31822 ft | 468 kts | 294° |
| 2026-05-05 11:44 | 2.21721 | 101.53952 | 31817 ft | 468 kts | 294° |
| 2026-05-05 11:44 | 2.24342 | 101.47998 | 31808 ft | 467 kts | 294° |
| 2026-05-05 11:45 | 2.26967 | 101.42053 | 31818 ft | 467 kts | 294° |
| 2026-05-05 11:45 | 2.29584 | 101.36112 | 31816 ft | 467 kts | 294° |
| 2026-05-05 11:46 | 2.31755 | 101.31175 | 31804 ft | 466 kts | 294° |
| 2026-05-05 11:46 | 2.34364 | 101.25239 | 31817 ft | 466 kts | 294° |
| 2026-05-05 11:47 | 2.36537 | 101.20296 | 31814 ft | 466 kts | 294° |